Time;durP1;ratioP1;P1;durP2;ratioP2;P2;SDS_P1;SDS_P2;PMS_P1;PMS_P2;Temp;Humidity;BMP_temperature;BMP_pressure;BME280_temperature;BME280_humidity;BME280_pressure;Samples;Min_cycle;Max_cycle;Signal;HPM_P1;HPM_P2
2021/06/10 00:01:02;;;;;;;9.80;6.03;;;;;;;;;;5096759;28;20444;-55
2021/06/10 00:03:29;;;;;;;6.97;5.93;;;;;;;;;;5096774;28;20460;-59
2021/06/10 00:05:58;;;;;;;7.77;5.07;;;;;;;;;;5096513;28;20447;-57
2021/06/10 00:08:24;;;;;;;7.80;5.17;;;;;;;;;;5076629;28;20759;-56
2021/06/10 00:10:54;;;;;;;7.93;6.10;;;;;;;;;;5080223;28;20468;-52
2021/06/10 00:13:21;;;;;;;7.67;5.37;;;;;;;;;;5083081;28;20430;-53
2021/06/10 00:16:04;;;;;;;10.80;5.67;;;;;;;;;;5076968;28;20472;-53
2021/06/10 00:18:31;;;;;;;9.63;5.63;;;;;;;;;;5091467;28;20471;-57
2021/06/10 00:21:01;;;;;;;8.80;5.40;;;;;;;;;;5096514;28;20531;-60
2021/06/10 00:23:47;;;;;;;8.90;5.33;;;;;;;;;;5096235;28;20471;-55
2021/06/10 00:26:14;;;;;;;9.83;4.80;;;;;;;;;;5083161;28;20493;-53
2021/06/10 00:28:41;;;;;;;8.63;5.73;;;;;;;;;;5075727;28;20457;-57
2021/06/10 00:31:08;;;;;;;7.73;5.00;;;;;;;;;;5076076;28;20481;-58
2021/06/10 00:33:35;;;;;;;6.40;4.40;;;;;;;;;;5091777;28;20440;-58
2021/06/10 00:39:07;;;;;;;10.73;5.67;;;;;;;;;;5081777;28;20869;-57
2021/06/10 00:41:34;;;;;;;13.80;10.10;;;;;;;;;;5078908;28;20441;-59
2021/06/10 00:44:21;;;;;;;13.47;10.13;;;;;;;;;;5076326;28;20467;-56
2021/06/10 00:46:52;;;;;;;18.50;12.80;;;;;;;;;;5094093;28;20487;-57
2021/06/10 00:49:19;;;;;;;50.67;39.50;;;;;;;;;;5096045;28;20468;-55
2021/06/10 00:51:47;;;;;;;27.23;21.47;;;;;;;;;;5093122;28;20459;-57
2021/06/10 00:54:15;;;;;;;30.43;21.37;;;;;;;;;;5094562;28;20567;-58
2021/06/10 00:56:45;;;;;;;43.97;34.77;;;;;;;;;;5074257;28;20455;-52
2021/06/10 01:02:16;;;;;;;29.73;23.23;;;;;;;;;;5088632;28;20467;-58
2021/06/10 01:04:43;;;;;;;13.23;8.23;;;;;;;;;;5095628;28;20468;-59
2021/06/10 01:07:19;;;;;;;37.97;31.03;;;;;;;;;;5096010;28;20448;-60
2021/06/10 01:09:49;;;;;;;9.17;5.23;;;;;;;;;;5084781;28;20473;-52
2021/06/10 01:12:19;;;;;;;8.77;5.63;;;;;;;;;;5079372;28;20524;-55
2021/06/10 01:14:58;;;;;;;9.30;5.57;;;;;;;;;;5080058;28;20872;-56
2021/06/10 01:17:25;;;;;;;6.63;5.00;;;;;;;;;;5079484;28;20795;-56
2021/06/10 01:19:56;;;;;;;6.27;5.50;;;;;;;;;;5079525;28;20457;-58
2021/06/10 01:22:37;;;;;;;6.43;4.80;;;;;;;;;;5084471;28;20467;-55
2021/06/10 01:25:12;;;;;;;17.47;10.20;;;;;;;;;;5097510;28;20476;-56
2021/06/10 01:27:43;;;;;;;10.83;6.83;;;;;;;;;;5098917;28;20458;-64
2021/06/10 01:30:11;;;;;;;51.60;38.33;;;;;;;;;;5098846;28;20506;-56
2021/06/10 01:32:40;;;;;;;16.70;11.50;;;;;;;;;;5081593;28;20487;-57
2021/06/10 01:35:16;;;;;;;12.00;5.90;;;;;;;;;;5079569;28;20428;-56
2021/06/10 01:37:44;;;;;;;12.73;8.43;;;;;;;;;;5078973;28;20478;-58
2021/06/10 01:40:11;;;;;;;7.50;5.40;;;;;;;;;;5079153;28;20714;-57
2021/06/10 01:42:39;;;;;;;6.60;5.63;;;;;;;;;;5081676;28;20463;-57
2021/06/10 01:45:10;;;;;;;8.63;4.90;;;;;;;;;;5099056;28;20456;-56
2021/06/10 01:47:51;;;;;;;7.83;5.77;;;;;;;;;;5096724;28;20428;-58
2021/06/10 01:50:20;;;;;;;8.57;5.93;;;;;;;;;;5098654;28;20511;-59
2021/06/10 01:52:47;;;;;;;7.80;5.03;;;;;;;;;;5098735;28;20475;-60
2021/06/10 01:55:17;;;;;;;7.77;6.13;;;;;;;;;;5099000;28;20448;-58
2021/06/10 01:57:44;;;;;;;8.27;5.37;;;;;;;;;;5097039;28;20491;-55
2021/06/10 02:00:14;;;;;;;39.43;25.83;;;;;;;;;;5099060;28;20507;-54
2021/06/10 02:02:53;;;;;;;10.93;6.53;;;;;;;;;;5082536;28;20532;-57
2021/06/10 02:05:21;;;;;;;16.53;10.67;;;;;;;;;;5091955;28;20509;-60
2021/06/10 02:07:49;;;;;;;33.80;27.57;;;;;;;;;;5099016;28;20471;-57
2021/06/10 02:10:28;;;;;;;22.50;17.30;;;;;;;;;;5098469;28;20483;-56
2021/06/10 02:12:55;;;;;;;7.40;5.23;;;;;;;;;;5080736;28;20443;-58
2021/06/10 02:15:24;;;;;;;7.43;5.37;;;;;;;;;;5098864;28;20455;-58
2021/06/10 02:18:06;;;;;;;11.80;6.90;;;;;;;;;;5098853;28;20837;-62
2021/06/10 02:20:35;;;;;;;9.50;7.17;;;;;;;;;;5098575;28;20436;-57
2021/06/10 02:23:02;;;;;;;36.60;28.63;;;;;;;;;;5098935;28;20460;-57
2021/06/10 02:25:29;;;;;;;19.20;14.57;;;;;;;;;;5098860;28;20456;-55
2021/06/10 02:27:55;;;;;;;17.40;7.80;;;;;;;;;;5082639;28;20441;-56
2021/06/10 02:30:24;;;;;;;10.77;7.50;;;;;;;;;;5077877;28;20800;-57
2021/06/10 02:32:51;;;;;;;9.60;6.93;;;;;;;;;;5078318;28;20456;-59
2021/06/10 02:35:18;;;;;;;9.53;6.87;;;;;;;;;;5078004;28;20477;-60
2021/06/10 02:37:46;;;;;;;9.30;6.73;;;;;;;;;;5077737;28;20499;-56
2021/06/10 02:40:14;;;;;;;9.50;6.27;;;;;;;;;;5078215;28;20524;-58
2021/06/10 02:42:41;;;;;;;14.07;10.93;;;;;;;;;;5078045;28;20426;-55
2021/06/10 02:45:28;;;;;;;18.17;8.50;;;;;;;;;;5092243;28;20441;-56
2021/06/10 02:47:57;;;;;;;19.70;13.43;;;;;;;;;;5094998;28;20467;-54
2021/06/10 02:50:26;;;;;;;12.47;9.10;;;;;;;;;;5097441;28;20483;-61
2021/06/10 02:52:55;;;;;;;9.07;6.00;;;;;;;;;;5097469;28;20440;-60
2021/06/10 02:55:22;;;;;;;9.63;6.60;;;;;;;;;;5097279;28;20451;-57
2021/06/10 02:57:51;;;;;;;8.43;7.10;;;;;;;;;;5083931;28;20451;-59
2021/06/10 03:00:36;;;;;;;7.60;6.20;;;;;;;;;;5096346;28;20453;-50
2021/06/10 03:03:04;;;;;;;10.07;5.60;;;;;;;;;;5088318;28;20559;-56
2021/06/10 03:05:32;;;;;;;9.03;7.10;;;;;;;;;;5076691;28;20556;-61
2021/06/10 03:08:14;;;;;;;15.80;8.20;;;;;;;;;;5076896;28;20460;-50
2021/06/10 03:10:41;;;;;;;15.70;7.90;;;;;;;;;;5076693;28;20547;-60
2021/06/10 03:13:16;;;;;;;8.87;7.33;;;;;;;;;;5092739;28;20452;-57
2021/06/10 03:15:55;;;;;;;9.07;7.17;;;;;;;;;;5097972;28;20432;-58
2021/06/10 03:18:24;;;;;;;11.60;7.50;;;;;;;;;;5096780;28;20513;-54
2021/06/10 03:20:51;;;;;;;7.63;6.57;;;;;;;;;;5081396;28;20453;-60
2021/06/10 03:23:20;;;;;;;8.50;6.10;;;;;;;;;;5086519;28;20447;-58
2021/06/10 03:25:47;;;;;;;12.23;7.40;;;;;;;;;;5078478;28;20487;-58
2021/06/10 03:28:14;;;;;;;9.90;7.40;;;;;;;;;;5076866;28;20463;-58
2021/06/10 03:33:51;;;;;;;12.13;9.43;;;;;;;;;;5091746;28;20456;-61
2021/06/10 03:36:24;;;;;;;12.80;8.80;;;;;;;;;;5096830;28;20515;-57
2021/06/10 03:41:55;;;;;;;14.70;12.07;;;;;;;;;;5078827;28;20529;-53
2021/06/10 03:44:22;;;;;;;12.10;8.80;;;;;;;;;;5094294;28;20445;-57
2021/06/10 03:46:57;;;;;;;18.00;14.10;;;;;;;;;;5083889;28;20448;-59
2021/06/10 03:49:33;;;;;;;20.90;17.83;;;;;;;;;;5086322;28;20455;-58
2021/06/10 03:52:06;;;;;;;24.80;17.30;;;;;;;;;;5097436;28;20460;-59
2021/06/10 03:54:34;;;;;;;20.77;15.43;;;;;;;;;;5096292;28;20523;-55
2021/06/10 03:57:01;;;;;;;16.90;13.23;;;;;;;;;;5096849;28;20467;-57
2021/06/10 03:59:34;;;;;;;14.73;13.10;;;;;;;;;;5080223;28;20464;-58
2021/06/10 04:02:02;;;;;;;15.23;12.70;;;;;;;;;;5076422;28;20465;-59
2021/06/10 04:04:31;;;;;;;15.47;13.30;;;;;;;;;;5075606;28;20475;-56
2021/06/10 04:06:58;;;;;;;21.27;13.80;;;;;;;;;;5075584;28;20453;-54
2021/06/10 04:09:25;;;;;;;18.80;14.77;;;;;;;;;;5075786;28;20469;-61
2021/06/10 04:11:52;;;;;;;15.90;13.97;;;;;;;;;;5091898;28;20496;-52
2021/06/10 04:14:36;;;;;;;14.67;13.07;;;;;;;;;;5096204;28;20452;-56
2021/06/10 04:17:04;;;;;;;16.30;14.03;;;;;;;;;;5095766;28;20515;-57
2021/06/10 04:19:32;;;;;;;16.13;14.50;;;;;;;;;;5095787;28;20461;-61
2021/06/10 04:22:25;;;;;;;23.03;15.00;;;;;;;;;;5094918;28;20494;-57
2021/06/10 04:24:51;;;;;;;20.70;15.53;;;;;;;;;;5095645;28;20452;-59
2021/06/10 04:27:18;;;;;;;16.70;14.73;;;;;;;;;;5082745;28;20696;-58
2021/06/10 04:29:51;;;;;;;16.43;14.73;;;;;;;;;;5079944;28;20425;-58
2021/06/10 04:32:17;;;;;;;14.97;13.13;;;;;;;;;;5094369;28;20487;-60
2021/06/10 04:34:45;;;;;;;16.97;15.23;;;;;;;;;;5094705;28;20479;-59
2021/06/10 04:37:20;;;;;;;18.00;14.50;;;;;;;;;;5095740;28;20456;-58
2021/06/10 04:39:49;;;;;;;16.23;13.77;;;;;;;;;;5096142;28;20459;-55
2021/06/10 04:42:16;;;;;;;15.40;13.67;;;;;;;;;;5095809;28;20482;-58
2021/06/10 04:44:59;;;;;;;16.40;14.00;;;;;;;;;;5096235;28;20497;-56
2021/06/10 04:47:29;;;;;;;18.07;13.90;;;;;;;;;;5095483;28;20558;-55
2021/06/10 04:49:58;;;;;;;14.40;13.00;;;;;;;;;;5090592;28;20424;-60
2021/06/10 04:52:28;;;;;;;33.53;15.30;;;;;;;;;;5095930;28;20652;-59
2021/06/10 04:54:55;;;;;;;14.40;12.90;;;;;;;;;;5095739;28;20460;-59
2021/06/10 04:57:25;;;;;;;17.47;14.97;;;;;;;;;;5073975;28;20483;-56
2021/06/10 05:00:01;;;;;;;17.30;13.63;;;;;;;;;;5075462;28;20488;-60
2021/06/10 05:02:28;;;;;;;16.33;13.97;;;;;;;;;;5075363;28;20448;-54
2021/06/10 05:04:55;;;;;;;15.83;13.37;;;;;;;;;;5078728;28;20433;-62
2021/06/10 05:07:28;;;;;;;15.87;13.43;;;;;;;;;;5094283;28;20444;-55
2021/06/10 05:09:59;;;;;;;18.20;14.10;;;;;;;;;;5075005;28;20461;-55
2021/06/10 05:12:27;;;;;;;19.37;12.33;;;;;;;;;;5075232;28;20437;-59
2021/06/10 05:17:57;;;;;;;14.67;11.70;;;;;;;;;;5087463;28;20513;-61
2021/06/10 05:20:24;;;;;;;18.23;14.20;;;;;;;;;;5094753;28;20452;-58
2021/06/10 05:22:54;;;;;;;16.70;13.37;;;;;;;;;;5092215;28;20451;-52
2021/06/10 05:25:21;;;;;;;16.63;13.50;;;;;;;;;;5084843;28;20475;-60
2021/06/10 05:27:50;;;;;;;14.53;12.50;;;;;;;;;;5077790;28;20441;-58
2021/06/10 05:32:51;;;;;;;17.63;12.63;;;;;;;;;;5093358;28;20470;-56
2021/06/10 05:35:21;;;;;;;17.60;13.27;;;;;;;;;;5095060;28;20457;-57
2021/06/10 05:37:55;;;;;;;15.43;10.73;;;;;;;;;;5088504;28;20505;-59
2021/06/10 05:40:27;;;;;;;18.80;12.17;;;;;;;;;;5086044;28;20452;-61
2021/06/10 05:46:04;;;;;;;14.73;11.60;;;;;;;;;;5084598;28;20543;-58
2021/06/10 05:48:31;;;;;;;17.53;12.53;;;;;;;;;;5093280;28;20436;-60
2021/06/10 05:51:13;;;;;;;12.40;11.10;;;;;;;;;;5074585;28;20485;-53
2021/06/10 05:53:40;;;;;;;15.00;11.83;;;;;;;;;;5082521;28;20448;-59
2021/06/10 05:56:08;;;;;;;15.40;11.03;;;;;;;;;;5077029;28;20421;-56
2021/06/10 05:58:46;;;;;;;17.53;10.03;;;;;;;;;;5080746;28;20456;-59
2021/06/10 06:01:20;;;;;;;18.27;11.03;;;;;;;;;;5087873;28;20466;-60
2021/06/10 06:03:47;;;;;;;21.10;11.20;;;;;;;;;;5095947;28;20494;-56
2021/06/10 06:06:36;;;;;;;13.40;9.67;;;;;;;;;;5094584;28;20513;-53
2021/06/10 06:09:17;;;;;;;15.53;10.27;;;;;;;;;;5088308;28;20499;-55
2021/06/10 06:11:50;;;;;;;17.57;11.13;;;;;;;;;;5083154;28;20502;-60
2021/06/10 06:14:24;;;;;;;16.33;10.40;;;;;;;;;;5078472;28;20471;-55
2021/06/10 06:17:06;;;;;;;13.60;9.63;;;;;;;;;;5083122;28;20464;-57
2021/06/10 06:19:35;;;;;;;10.77;9.10;;;;;;;;;;5097683;28;20550;-50
2021/06/10 06:22:03;;;;;;;13.93;9.40;;;;;;;;;;5089751;28;20444;-59
2021/06/10 06:24:31;;;;;;;14.63;10.07;;;;;;;;;;5096444;28;20452;-58
2021/06/10 06:27:10;;;;;;;19.17;9.57;;;;;;;;;;5095832;28;20448;-59
2021/06/10 06:29:50;;;;;;;11.00;8.50;;;;;;;;;;5096463;28;20491;-62
2021/06/10 06:35:10;;;;;;;14.63;10.33;;;;;;;;;;5083444;28;20512;-54
2021/06/10 06:37:42;;;;;;;15.63;10.33;;;;;;;;;;5085938;28;20468;-57
2021/06/10 06:40:25;;;;;;;14.40;9.50;;;;;;;;;;5077455;28;20492;-58
2021/06/10 06:42:54;;;;;;;13.07;9.67;;;;;;;;;;5076765;28;20676;-59
2021/06/10 06:45:21;;;;;;;14.40;8.97;;;;;;;;;;5076113;28;20441;-62
2021/06/10 06:47:54;;;;;;;15.70;8.60;;;;;;;;;;5093207;28;20468;-60
2021/06/10 06:50:24;;;;;;;11.87;8.80;;;;;;;;;;5082326;28;20477;-55
2021/06/10 06:52:57;;;;;;;14.60;10.83;;;;;;;;;;5085665;28;20476;-61
2021/06/10 06:55:24;;;;;;;10.60;7.90;;;;;;;;;;5083180;28;20461;-58
2021/06/10 06:57:50;;;;;;;12.03;9.30;;;;;;;;;;5092702;28;20799;-58
2021/06/10 07:00:20;;;;;;;13.37;8.53;;;;;;;;;;5094741;28;20613;-60
2021/06/10 07:02:46;;;;;;;14.97;9.60;;;;;;;;;;5095630;28;20468;-59
2021/06/10 07:05:14;;;;;;;18.73;8.57;;;;;;;;;;5085435;28;20470;-56
2021/06/10 07:07:41;;;;;;;14.27;7.83;;;;;;;;;;5091204;28;20447;-55
2021/06/10 07:10:09;;;;;;;14.97;9.83;;;;;;;;;;5094766;28;20483;-59
2021/06/10 07:12:55;;;;;;;14.20;8.20;;;;;;;;;;5094296;28;20527;-59
2021/06/10 07:15:23;;;;;;;13.73;7.33;;;;;;;;;;5094145;28;20460;-62
2021/06/10 07:17:50;;;;;;;11.77;6.80;;;;;;;;;;5093110;28;20452;-62
2021/06/10 07:20:21;;;;;;;12.23;9.47;;;;;;;;;;5094091;28;20436;-62
2021/06/10 07:22:48;;;;;;;13.00;8.47;;;;;;;;;;5094566;28;20456;-54
2021/06/10 07:25:16;;;;;;;14.83;8.97;;;;;;;;;;5089507;28;20439;-57
2021/06/10 07:27:43;;;;;;;12.50;10.20;;;;;;;;;;5093182;28;20452;-61
2021/06/10 07:30:14;;;;;;;13.80;10.10;;;;;;;;;;5093473;28;20451;-53
2021/06/10 07:32:44;;;;;;;10.53;8.80;;;;;;;;;;5083543;28;20482;-60
2021/06/10 07:35:11;;;;;;;13.03;11.63;;;;;;;;;;5083274;28;20505;-56
2021/06/10 07:37:39;;;;;;;16.13;11.13;;;;;;;;;;5086126;28;20520;-57
2021/06/10 07:40:07;;;;;;;13.23;11.03;;;;;;;;;;5077984;28;20456;-58
2021/06/10 07:42:35;;;;;;;19.70;10.87;;;;;;;;;;5074364;28;20446;-61
2021/06/10 07:45:02;;;;;;;18.20;11.50;;;;;;;;;;5077206;28;20477;-62
2021/06/10 07:47:29;;;;;;;18.83;11.37;;;;;;;;;;5081474;28;20429;-60
2021/06/10 07:49:57;;;;;;;19.43;11.23;;;;;;;;;;5076634;28;20465;-58
2021/06/10 07:52:24;;;;;;;13.27;10.10;;;;;;;;;;5073056;28;20456;-61
2021/06/10 07:54:59;;;;;;;17.40;10.00;;;;;;;;;;5087063;28;20449;-56
2021/06/10 07:57:26;;;;;;;13.10;9.37;;;;;;;;;;5074156;28;20491;-59
2021/06/10 07:59:56;;;;;;;10.57;9.43;;;;;;;;;;5075734;28;20461;-63
2021/06/10 08:03:00;;;;;;;15.53;9.03;;;;;;;;;;5073761;28;20442;-61
2021/06/10 08:05:29;;;;;;;10.67;7.63;;;;;;;;;;5078255;28;20528;-59
2021/06/10 08:07:58;;;;;;;12.17;9.10;;;;;;;;;;5078664;28;20475;-60
2021/06/10 08:10:52;;;;;;;10.20;7.00;;;;;;;;;;5070395;28;20488;-61
2021/06/10 08:13:21;;;;;;;6.10;3.90;;;;;;;;;;5076804;28;20515;-57
2021/06/10 08:15:50;;;;;;;13.27;5.10;;;;;;;;;;5077744;28;20453;-57
2021/06/10 08:18:27;;;;;;;7.20;4.20;;;;;;;;;;5077560;28;20436;-59
2021/06/10 08:21:10;;;;;;;7.27;4.10;;;;;;;;;;5079966;28;20456;-54
2021/06/10 08:23:36;;;;;;;8.10;4.33;;;;;;;;;;5092838;28;20467;-59
2021/06/10 08:26:20;;;;;;;9.37;5.90;;;;;;;;;;5091924;28;20710;-60
2021/06/10 08:28:47;;;;;;;11.73;6.53;;;;;;;;;;5091373;28;20499;-57
2021/06/10 08:31:16;;;;;;;22.53;16.73;;;;;;;;;;5093124;28;20488;-57
2021/06/10 08:33:44;;;;;;;18.00;12.63;;;;;;;;;;5092009;28;20464;-55
2021/06/10 08:36:16;;;;;;;8.90;5.83;;;;;;;;;;5091354;28;20507;-63
2021/06/10 08:38:49;;;;;;;13.33;7.13;;;;;;;;;;5076515;28;20465;-59
2021/06/10 08:41:18;;;;;;;10.10;6.50;;;;;;;;;;5067518;28;20826;-60
2021/06/10 08:43:46;;;;;;;15.50;7.03;;;;;;;;;;5082418;28;20453;-59
2021/06/10 08:46:29;;;;;;;15.37;6.60;;;;;;;;;;5072673;28;20501;-60
2021/06/10 08:48:56;;;;;;;9.43;6.50;;;;;;;;;;5072687;28;20456;-60
2021/06/10 08:51:27;;;;;;;11.00;5.90;;;;;;;;;;5083581;28;20564;-54
2021/06/10 08:53:57;;;;;;;10.67;6.03;;;;;;;;;;5090608;28;20459;-60
2021/06/10 08:56:25;;;;;;;10.00;6.03;;;;;;;;;;5093453;28;20463;-59
2021/06/10 08:58:52;;;;;;;11.33;5.70;;;;;;;;;;5086638;28;20502;-58
2021/06/10 09:01:30;;;;;;;12.90;7.60;;;;;;;;;;5072386;28;20532;-60
2021/06/10 09:03:59;;;;;;;9.30;5.70;;;;;;;;;;5079599;28;20641;-56
2021/06/10 09:06:28;;;;;;;8.07;5.53;;;;;;;;;;5092999;28;20446;-59
2021/06/10 09:09:19;;;;;;;8.77;6.37;;;;;;;;;;5092847;28;20506;-61
2021/06/10 09:11:46;;;;;;;9.40;5.50;;;;;;;;;;5092101;28;20503;-60
2021/06/10 09:14:13;;;;;;;9.77;6.13;;;;;;;;;;5081287;28;20467;-61
2021/06/10 09:16:54;;;;;;;8.53;5.83;;;;;;;;;;5077383;28;20461;-55
2021/06/10 09:19:22;;;;;;;10.40;6.70;;;;;;;;;;5073536;28;20452;-56
2021/06/10 09:21:57;;;;;;;9.87;6.50;;;;;;;;;;5072666;28;20455;-55
2021/06/10 09:24:43;;;;;;;10.30;6.50;;;;;;;;;;5072385;28;20444;-61
2021/06/10 09:27:22;;;;;;;9.00;5.07;;;;;;;;;;5073426;28;20480;-57
2021/06/10 09:30:03;;;;;;;10.07;5.70;;;;;;;;;;5058744;28;20473;-59
2021/06/10 09:32:32;;;;;;;6.47;4.63;;;;;;;;;;5067616;28;20543;-59
2021/06/10 09:35:00;;;;;;;7.70;4.93;;;;;;;;;;5076204;28;20499;-56
2021/06/10 09:37:34;;;;;;;9.73;5.60;;;;;;;;;;5075736;28;20425;-62
2021/06/10 09:40:25;;;;;;;9.33;6.40;;;;;;;;;;5062823;28;20487;-60
2021/06/10 09:42:55;;;;;;;12.10;5.87;;;;;;;;;;5066965;28;20553;-59
2021/06/10 09:45:27;;;;;;;9.20;4.60;;;;;;;;;;5058632;28;20444;-60
2021/06/10 09:47:56;;;;;;;7.70;5.60;;;;;;;;;;5071266;28;20464;-57
2021/06/10 09:50:30;;;;;;;8.60;5.17;;;;;;;;;;5073647;28;20460;-57
2021/06/10 09:53:02;;;;;;;5.50;4.77;;;;;;;;;;5065696;28;20925;-52
2021/06/10 09:55:34;;;;;;;8.17;4.87;;;;;;;;;;5064245;28;20500;-55
2021/06/10 09:58:19;;;;;;;7.87;4.00;;;;;;;;;;5055540;28;20469;-57
2021/06/10 10:00:51;;;;;;;7.50;4.40;;;;;;;;;;5056829;28;20470;-59
2021/06/10 10:03:42;;;;;;;5.97;4.17;;;;;;;;;;5056839;28;20450;-56
2021/06/10 10:06:17;;;;;;;5.87;3.63;;;;;;;;;;5056245;28;20539;-54
2021/06/10 10:08:47;;;;;;;8.20;4.33;;;;;;;;;;5070663;28;20460;-59
2021/06/10 10:11:38;;;;;;;8.03;4.10;;;;;;;;;;5076488;28;20480;-60
2021/06/10 10:14:17;;;;;;;8.80;4.23;;;;;;;;;;5076465;28;20449;-57
2021/06/10 10:16:45;;;;;;;6.93;3.67;;;;;;;;;;5076752;28;20484;-53
2021/06/10 10:19:13;;;;;;;7.80;3.33;;;;;;;;;;5072377;28;20483;-56
2021/06/10 10:21:45;;;;;;;7.60;2.73;;;;;;;;;;5058054;28;20508;-62
2021/06/10 10:24:48;;;;;;;9.77;4.67;;;;;;;;;;5056658;28;20469;-57
2021/06/10 10:27:19;;;;;;;6.90;3.93;;;;;;;;;;5070257;28;20507;-58
2021/06/10 10:29:49;;;;;;;8.03;4.03;;;;;;;;;;5066422;28;20470;-56
2021/06/10 10:32:21;;;;;;;9.60;3.70;;;;;;;;;;5059180;28;20505;-58
2021/06/10 10:34:51;;;;;;;12.00;3.27;;;;;;;;;;5073402;28;20640;-59
2021/06/10 10:37:24;;;;;;;5.70;2.77;;;;;;;;;;5070391;28;20485;-61
2021/06/10 10:39:55;;;;;;;5.77;3.23;;;;;;;;;;5058702;28;20454;-58
2021/06/10 10:42:31;;;;;;;5.47;3.70;;;;;;;;;;5053343;28;20493;-62
2021/06/10 10:45:15;;;;;;;4.30;2.60;;;;;;;;;;5064359;28;20473;-59
2021/06/10 10:47:43;;;;;;;6.50;3.13;;;;;;;;;;5060082;28;20496;-60
2021/06/10 10:50:34;;;;;;;5.70;3.73;;;;;;;;;;5071365;28;20704;-53
2021/06/10 10:53:02;;;;;;;9.73;4.00;;;;;;;;;;5057711;28;20540;-60
2021/06/10 10:55:37;;;;;;;8.10;4.40;;;;;;;;;;5069169;28;20529;-61
2021/06/10 10:58:06;;;;;;;7.40;4.60;;;;;;;;;;5054236;28;20474;-55
2021/06/10 11:00:47;;;;;;;6.37;4.20;;;;;;;;;;5065278;28;20444;-61
2021/06/10 11:03:21;;;;;;;11.37;3.30;;;;;;;;;;5070882;28;20475;-62
2021/06/10 11:05:50;;;;;;;8.23;5.03;;;;;;;;;;5068700;28;20489;-52
2021/06/10 11:08:17;;;;;;;7.30;4.10;;;;;;;;;;5071200;28;20452;-59
2021/06/10 11:11:11;;;;;;;6.87;3.90;;;;;;;;;;5075263;28;20500;-56
2021/06/10 11:13:50;;;;;;;7.87;3.83;;;;;;;;;;5070951;28;20493;-53
2021/06/10 11:16:17;;;;;;;6.60;3.63;;;;;;;;;;5074338;28;20532;-61
2021/06/10 11:18:46;;;;;;;5.10;2.63;;;;;;;;;;5071020;28;20469;-59
2021/06/10 11:21:16;;;;;;;4.67;3.33;;;;;;;;;;5056153;28;20461;-60
2021/06/10 11:23:43;;;;;;;4.23;2.63;;;;;;;;;;5055903;28;20445;-56
2021/06/10 11:26:20;;;;;;;4.73;2.70;;;;;;;;;;5069358;28;20453;-58
2021/06/10 11:29:34;;;;;;;5.63;2.80;;;;;;;;;;5070573;28;20510;-61
2021/06/10 11:35:38;;;;;;;5.50;3.00;;;;;;;;;;5066950;28;20463;-61
2021/06/10 11:38:18;;;;;;;5.10;3.60;;;;;;;;;;5068156;28;20436;-59
2021/06/10 11:41:02;;;;;;;7.13;2.93;;;;;;;;;;5065007;28;20449;-62
2021/06/10 11:43:30;;;;;;;10.20;3.33;;;;;;;;;;5074714;28;20534;-60
2021/06/10 11:45:58;;;;;;;4.70;3.20;;;;;;;;;;5073590;28;20445;-57
2021/06/10 11:48:43;;;;;;;6.37;2.80;;;;;;;;;;5073358;28;20469;-58
2021/06/10 11:51:22;;;;;;;7.20;4.00;;;;;;;;;;5074552;28;20556;-55
2021/06/10 11:54:17;;;;;;;5.50;2.97;;;;;;;;;;5068700;28;20469;-57
2021/06/10 11:56:46;;;;;;;5.40;2.77;;;;;;;;;;5074912;28;20453;-52
2021/06/10 11:59:34;;;;;;;7.73;5.30;;;;;;;;;;5075445;28;20432;-59
2021/06/10 12:02:02;;;;;;;8.93;3.80;;;;;;;;;;5066520;28;20462;-59
2021/06/10 12:04:29;;;;;;;5.20;2.70;;;;;;;;;;5067589;28;20951;-56
2021/06/10 12:07:20;;;;;;;7.27;2.50;;;;;;;;;;5074740;28;20441;-54
2021/06/10 12:09:58;;;;;;;11.00;3.47;;;;;;;;;;5074424;28;20441;-62
2021/06/10 12:12:31;;;;;;;6.03;3.10;;;;;;;;;;5074733;28;20496;-54
2021/06/10 12:15:10;;;;;;;6.23;2.77;;;;;;;;;;5074979;28;20467;-55
2021/06/10 12:17:50;;;;;;;5.20;2.87;;;;;;;;;;5073680;28;20451;-56
2021/06/10 12:20:18;;;;;;;9.77;3.00;;;;;;;;;;5073512;28;20482;-60
2021/06/10 12:22:46;;;;;;;7.00;2.97;;;;;;;;;;5074497;28;20490;-55
2021/06/10 12:25:19;;;;;;;7.97;2.90;;;;;;;;;;5073156;28;20453;-61
2021/06/10 12:28:17;;;;;;;8.80;3.07;;;;;;;;;;5056608;28;20903;-61
2021/06/10 12:33:46;;;;;;;9.30;5.80;;;;;;;;;;5052652;28;20521;-59
2021/06/10 12:36:14;;;;;;;5.30;2.63;;;;;;;;;;5067710;28;20449;-58
2021/06/10 12:38:42;;;;;;;4.27;2.70;;;;;;;;;;5061711;28;20452;-62
2021/06/10 12:41:40;;;;;;;5.83;3.20;;;;;;;;;;5072232;28;20444;-55
2021/06/10 12:44:12;;;;;;;7.10;4.10;;;;;;;;;;5068165;28;20441;-52
2021/06/10 12:46:46;;;;;;;7.23;2.80;;;;;;;;;;5054414;28;20480;-54
2021/06/10 12:49:13;;;;;;;4.50;2.67;;;;;;;;;;5054475;28;20513;-51
2021/06/10 12:54:43;;;;;;;7.27;3.50;;;;;;;;;;5065621;28;20484;-61
2021/06/10 12:57:20;;;;;;;7.90;4.00;;;;;;;;;;5056680;28;20488;-57
2021/06/10 13:00:03;;;;;;;5.83;3.53;;;;;;;;;;5059771;28;20441;-55
2021/06/10 13:02:30;;;;;;;7.17;3.80;;;;;;;;;;5073597;28;20586;-55
2021/06/10 13:04:58;;;;;;;4.90;3.30;;;;;;;;;;5074799;28;20452;-57
2021/06/10 13:07:27;;;;;;;6.70;3.30;;;;;;;;;;5078871;28;20465;-59
2021/06/10 13:09:55;;;;;;;5.53;2.80;;;;;;;;;;5060601;28;20457;-56
2021/06/10 13:12:44;;;;;;;7.83;4.30;;;;;;;;;;5059317;28;20481;-55
2021/06/10 13:15:28;;;;;;;5.50;3.20;;;;;;;;;;5059233;28;20528;-60
2021/06/10 13:18:02;;;;;;;8.10;3.10;;;;;;;;;;5057759;28;20426;-57
2021/06/10 13:20:49;;;;;;;9.93;3.60;;;;;;;;;;5065738;28;20548;-61
2021/06/10 13:23:48;;;;;;;4.00;2.77;;;;;;;;;;5062766;28;20450;-54
2021/06/10 13:26:20;;;;;;;6.00;3.57;;;;;;;;;;5072760;28;20477;-60
2021/06/10 13:28:48;;;;;;;4.50;2.97;;;;;;;;;;5077727;28;20452;-58
2021/06/10 13:31:21;;;;;;;5.60;3.30;;;;;;;;;;5063083;28;20480;-60
2021/06/10 13:33:52;;;;;;;6.30;2.93;;;;;;;;;;5058550;28;20471;-59
2021/06/10 13:36:25;;;;;;;10.53;4.00;;;;;;;;;;5072820;28;21047;-61
2021/06/10 13:39:00;;;;;;;4.30;2.40;;;;;;;;;;5065597;28;20481;-57
2021/06/10 13:41:49;;;;;;;5.50;2.63;;;;;;;;;;5057819;28;20722;-62
2021/06/10 13:44:16;;;;;;;9.73;4.17;;;;;;;;;;5070241;28;20437;-61
2021/06/10 13:46:45;;;;;;;6.53;4.17;;;;;;;;;;5065791;28;20461;-57
2021/06/10 13:49:35;;;;;;;5.13;3.33;;;;;;;;;;5067676;28;20484;-61
2021/06/10 13:52:01;;;;;;;5.73;2.47;;;;;;;;;;5064074;28;20493;-57
2021/06/10 13:54:30;;;;;;;4.37;3.27;;;;;;;;;;5057939;28;20462;-57
2021/06/10 13:56:58;;;;;;;6.97;4.47;;;;;;;;;;5058516;28;20461;-59
2021/06/10 13:59:25;;;;;;;6.03;2.83;;;;;;;;;;5057865;28;20433;-57
2021/06/10 14:02:20;;;;;;;5.50;2.67;;;;;;;;;;5058049;28;20442;-61
2021/06/10 14:04:50;;;;;;;4.50;2.33;;;;;;;;;;5065799;28;20436;-57
2021/06/10 14:07:27;;;;;;;7.30;2.73;;;;;;;;;;5069598;28;20457;-58
2021/06/10 14:09:53;;;;;;;10.57;4.07;;;;;;;;;;5062918;28;20448;-59
2021/06/10 14:12:20;;;;;;;7.07;3.60;;;;;;;;;;5064698;28;20508;-54
2021/06/10 14:14:48;;;;;;;6.03;2.53;;;;;;;;;;5064496;28;20490;-61
2021/06/10 14:17:19;;;;;;;8.20;5.53;;;;;;;;;;5071904;28;20576;-55
2021/06/10 14:19:52;;;;;;;5.27;3.07;;;;;;;;;;5073174;28;20457;-51
2021/06/10 14:22:39;;;;;;;6.70;4.67;;;;;;;;;;5078118;28;20448;-57
2021/06/10 14:25:27;;;;;;;5.10;2.40;;;;;;;;;;5075769;28;20476;-57
2021/06/10 14:27:57;;;;;;;6.07;3.20;;;;;;;;;;5068964;28;20449;-58
2021/06/10 14:30:34;;;;;;;7.53;2.80;;;;;;;;;;5062010;28;20465;-62
2021/06/10 14:33:10;;;;;;;4.90;2.80;;;;;;;;;;5055554;28;20462;-57
2021/06/10 14:35:51;;;;;;;4.20;2.67;;;;;;;;;;5068045;28;20453;-55
2021/06/10 14:38:44;;;;;;;4.50;2.60;;;;;;;;;;5076537;28;20453;-51
2021/06/10 14:41:12;;;;;;;3.77;2.43;;;;;;;;;;5073916;28;20495;-55
2021/06/10 14:43:52;;;;;;;4.77;2.60;;;;;;;;;;5068123;28;20557;-60
2021/06/10 14:46:25;;;;;;;4.90;3.00;;;;;;;;;;5072368;28;20481;-59
2021/06/10 14:49:38;;;;;;;6.70;2.87;;;;;;;;;;5067377;28;20441;-58
2021/06/10 14:52:10;;;;;;;6.90;2.93;;;;;;;;;;5076066;28;20516;-59
2021/06/10 14:54:41;;;;;;;7.00;2.40;;;;;;;;;;5069833;28;20453;-59
2021/06/10 14:57:07;;;;;;;7.50;4.30;;;;;;;;;;5065786;28;20481;-56
2021/06/10 14:59:36;;;;;;;8.27;5.10;;;;;;;;;;5067789;28;20446;-57
2021/06/10 15:02:08;;;;;;;5.90;3.60;;;;;;;;;;5061396;28;20562;-61
2021/06/10 15:04:35;;;;;;;6.03;3.50;;;;;;;;;;5074638;28;20437;-58
2021/06/10 15:07:03;;;;;;;6.37;3.10;;;;;;;;;;5070507;28;20461;-58
2021/06/10 15:09:31;;;;;;;7.40;2.70;;;;;;;;;;5071778;28;20449;-59
2021/06/10 15:12:12;;;;;;;4.83;3.07;;;;;;;;;;5064868;28;20535;-60
2021/06/10 15:14:56;;;;;;;10.10;3.57;;;;;;;;;;5070239;28;20497;-55
2021/06/10 15:17:23;;;;;;;7.67;3.87;;;;;;;;;;5059641;28;20461;-57
2021/06/10 15:19:58;;;;;;;6.53;3.77;;;;;;;;;;5063108;28;20454;-56
2021/06/10 15:22:56;;;;;;;9.20;4.07;;;;;;;;;;5038658;28;20439;-58
2021/06/10 15:25:27;;;;;;;6.10;3.00;;;;;;;;;;5066762;28;20514;-58
2021/06/10 15:27:57;;;;;;;8.63;4.17;;;;;;;;;;5067163;28;20650;-60
2021/06/10 15:30:24;;;;;;;5.93;4.07;;;;;;;;;;5066857;28;20446;-55
2021/06/10 15:33:08;;;;;;;5.93;3.00;;;;;;;;;;5073854;28;20493;-59
2021/06/10 15:35:50;;;;;;;7.10;3.43;;;;;;;;;;5055047;28;20446;-58
2021/06/10 15:38:29;;;;;;;6.23;3.00;;;;;;;;;;5064438;28;20533;-59
2021/06/10 15:40:59;;;;;;;7.70;3.67;;;;;;;;;;5067126;28;20446;-58